Festivo — EAEQ — position and weather

sailwx.info

Track history (hours):
 
Tides and Currents Weather Stations Pressure Air Temp Water Temp Dewpoint Dewpoint Depression Visibility Wind Speed Wind Dir Waves Ship Positions

Festivo

Last reported at 2016-Apr-28 10:22 UTC. Time now 2016-Apr-29 12:10 UTC.
Position N 35°59' W 005°14'.

Length 136 m; draft 4.5 m.

Type: Cargo ship. MMSI: 225410000.

Date/timePositionNaut miles runAvg speedWind from/ knotsBaromVisibWave heightAir tempDewpointWater temp
2016-Apr-28 10:22N 35°59' W 005°14'6 8.0
2016-Apr-28 09:33N 35°54' W 005°19'0 0.0
2016-Apr-28 08:33N 35°54' W 005°19'0 0.0
2016-Apr-28 07:30N 35°54' W 005°19'0 0.0
2016-Apr-28 06:33N 35°54' W 005°19'3 2.8
2016-Apr-28 05:33N 35°56' W 005°17'  
2016-Apr-23 16:12N 35°55' W 005°13'5 7.4
2016-Apr-23 15:31N 35°54' W 005°19'0 0.0
2016-Apr-23 14:31N 35°54' W 005°19'0 0.0
2016-Apr-23 13:31N 35°54' W 005°19'0 0.0
2016-Apr-23 12:31N 35°54' W 005°19'0 0.0
2016-Apr-23 11:31N 35°54' W 005°19'0 0.0
2016-Apr-23 10:31N 35°54' W 005°19'0 0.0
2016-Apr-23 09:31N 35°54' W 005°19'0 0.0
2016-Apr-23 08:31N 35°54' W 005°19'0 0.0
2016-Apr-23 07:31N 35°54' W 005°19'0 0.0
2016-Apr-23 06:31N 35°54' W 005°19'0 0.0
2016-Apr-23 05:31N 35°54' W 005°19'1 0.8
2016-Apr-23 04:34N 35°54' W 005°19'4 0.1
2016-Apr-21 09:33N 35°57' W 005°15'5 4.3
2016-Apr-21 08:31N 35°54' W 005°19'0 0.0
2016-Apr-21 07:31N 35°54' W 005°19'0 0.0
2016-Apr-21 06:31N 35°54' W 005°19'3 2.7
2016-Apr-21 05:33N 35°56' W 005°17'6 0.1
2016-Apr-19 09:09N 35°59' W 005°12'610.1
2016-Apr-19 08:33N 35°55' W 005°18'2 2.1
2016-Apr-19 07:33N 35°54' W 005°19'0 0.0
2016-Apr-19 06:33N 35°54' W 005°19'0 0.0
2016-Apr-19 05:33N 35°54' W 005°19'0 0.5
2016-Apr-19 04:33N 35°54' W 005°19'5 5.4
2016-Apr-19 03:33N 35°58' W 005°14'  
Track history (hours):
 
Tides and Currents Weather Stations Pressure Air Temp Water Temp Dewpoint Dewpoint Depression Visibility Wind Speed Wind Dir Waves Ship Positions

Festivo

Last reported at 2016-Apr-28 10:22 UTC. Time now 2016-Apr-29 12:10 UTC.
Position N 35°59' W 005°14'.

Length 136 m; draft 4.5 m.

Type: Cargo ship. MMSI: 225410000.

Date/timePositionNaut miles runAvg speedWind from/ knotsBaromVisibWave heightAir tempDewpointWater temp
2016-Apr-28 10:22N 35°59' W 005°14'6 8.0
2016-Apr-28 09:33N 35°54' W 005°19'0 0.0
2016-Apr-28 08:33N 35°54' W 005°19'0 0.0
2016-Apr-28 07:30N 35°54' W 005°19'0 0.0
2016-Apr-28 06:33N 35°54' W 005°19'3 2.8
2016-Apr-28 05:33N 35°56' W 005°17'  
2016-Apr-23 16:12N 35°55' W 005°13'5 7.4
2016-Apr-23 15:31N 35°54' W 005°19'0 0.0
2016-Apr-23 14:31N 35°54' W 005°19'0 0.0
2016-Apr-23 13:31N 35°54' W 005°19'0 0.0
2016-Apr-23 12:31N 35°54' W 005°19'0 0.0
2016-Apr-23 11:31N 35°54' W 005°19'0 0.0
2016-Apr-23 10:31N 35°54' W 005°19'0 0.0
2016-Apr-23 09:31N 35°54' W 005°19'0 0.0
2016-Apr-23 08:31N 35°54' W 005°19'0 0.0
2016-Apr-23 07:31N 35°54' W 005°19'0 0.0
2016-Apr-23 06:31N 35°54' W 005°19'0 0.0
2016-Apr-23 05:31N 35°54' W 005°19'1 0.8
2016-Apr-23 04:34N 35°54' W 005°19'4 0.1
2016-Apr-21 09:33N 35°57' W 005°15'5 4.3
2016-Apr-21 08:31N 35°54' W 005°19'0 0.0
2016-Apr-21 07:31N 35°54' W 005°19'0 0.0
2016-Apr-21 06:31N 35°54' W 005°19'3 2.7
2016-Apr-21 05:33N 35°56' W 005°17'6 0.1
2016-Apr-19 09:09N 35°59' W 005°12'610.1
2016-Apr-19 08:33N 35°55' W 005°18'2 2.1
2016-Apr-19 07:33N 35°54' W 005°19'0 0.0
2016-Apr-19 06:33N 35°54' W 005°19'0 0.0
2016-Apr-19 05:33N 35°54' W 005°19'0 0.5
2016-Apr-19 04:33N 35°54' W 005°19'5 5.4
2016-Apr-19 03:33N 35°58' W 005°14'  

Dump ship's entire track history